Stacje pogodowe na całym świecie

Reklama
Isola Di Salina, Włochy (16415): temperatura & temperatura punktu rosy: 12.07.2018 01:00:00 - 18.07.2018 01:00:00 (CEST)Isola Di Salina, Włochy (16415): prędkość wiatru: 12.07.2018 01:00:00 - 18.07.2018 01:00:00 (CEST)Isola Di Salina, Włochy (16415): kierunek wiatru: 12.07.2018 01:00:00 - 18.07.2018 01:00:00 (CEST)Isola Di Salina, Włochy (16415): ciśnienie zredukowane do poziomu morza: 12.07.2018 01:00:00 - 18.07.2018 01:00:00 (CEST)Isola Di Salina, Włochy (16415): opady: 12.07.2018 01:00:00 - 18.07.2018 01:00:00 (CEST)
Data i godzina tt [°C] td [°C] ff [km/h] ff [kt] dd ppp [hPa] rr [mm]
18.07.2018 01:00:00 - - - - - - -
18.07.2018 00:00:00 23,2 21,8 22 12 WNW 1014,2 -
17.07.2018 23:00:00 23,3 21,9 18 10 WNW 1014,1 -
17.07.2018 22:00:00 23,4 22,0 21 11 WNW 1013,9 -
17.07.2018 21:00:00 23,6 22,2 22 12 WNW 1012,9 -
17.07.2018 20:00:00 24,0 22,4 28 15 WNW 1012,4 0,0
17.07.2018 19:00:00 24,4 22,6 31 17 NW 1012,2 -
17.07.2018 18:00:00 24,7 22,3 35 19 NW 1012,3 -
17.07.2018 17:00:00 25,0 22,6 34 18 WNW 1012,4 -
17.07.2018 16:00:00 25,3 22,1 35 19 NW 1012,1 -
17.07.2018 15:00:00 25,9 21,7 34 18 WNW 1011,8 -
17.07.2018 14:00:00 25,9 21,3 34 18 WNW 1012,0 0,0
17.07.2018 13:00:00 26,4 21,8 31 17 WNW 1012,1 -
17.07.2018 12:00:00 26,4 23,6 29 16 WNW 1012,0 -
17.07.2018 11:00:00 25,4 22,0 35 19 WNW 1011,3 -
17.07.2018 10:00:00 26,2 22,4 22 12 WNW 1011,4 -
17.07.2018 09:00:00 25,6 23,4 28 15 WNW 1011,4 -
17.07.2018 08:00:00 25,7 23,3 21 11 W 1011,8 0,0
17.07.2018 07:00:00 25,0 23,2 26 14 W 1011,3 -
17.07.2018 06:00:00 25,1 22,7 22 12 WNW 1011,4 -
17.07.2018 05:00:00 26,0 21,4 22 12 WNW 1011,4 -
17.07.2018 04:00:00 27,4 17,8 11 6 W 1011,4 -
17.07.2018 03:00:00 28,0 16,2 9 5 WSW 1011,4 -
17.07.2018 02:00:00 24,9 15,2 8 4 W 1011,6 0,0
17.07.2018 01:00:00 25,1 15,9 4 2 W 1011,9 -
17.07.2018 00:00:00 25,3 20,0 2 1 SSE 1012,6 -
16.07.2018 23:00:00 25,4 19,9 24 13 SSE 1011,8 -
16.07.2018 22:00:00 25,0 21,2 28 15 S 1012,8 -
16.07.2018 21:00:00 24,9 23,3 4 2 W 1016,0 -
16.07.2018 20:00:00 25,3 24,6 22 12 N 1015,7 0,0
16.07.2018 19:00:00 25,9 24,6 16 9 N 1014,9 -
16.07.2018 18:00:00 26,8 25,2 13 7 N 1014,4 -
16.07.2018 17:00:00 27,5 25,7 5 3 ESE 1014,2 -
16.07.2018 16:00:00 27,7 25,9 15 8 SE 1013,9 -
16.07.2018 15:00:00 27,6 26,0 15 8 SE 1014,6 -
16.07.2018 14:00:00 27,6 25,6 21 11 SE 1015,0 0,0
16.07.2018 13:00:00 28,2 26,4 18 10 SSE 1015,9 -
16.07.2018 12:00:00 27,9 25,9 4 2 ENE 1016,6 -
16.07.2018 11:00:00 27,0 25,5 11 6 NNW 1016,4 -
16.07.2018 10:00:00 26,2 25,1 15 8 WNW 1016,4 -
16.07.2018 09:00:00 25,4 24,5 15 8 NW 1016,0 -
16.07.2018 08:00:00 24,7 24,1 8 4 NNW 1015,1 0,0
16.07.2018 07:00:00 23,3 22,7 5 3 S 1014,6 -
16.07.2018 06:00:00 22,7 22,0 0 0 N 1014,4 -
16.07.2018 05:00:00 22,9 22,2 5 3 W 1014,7 -
16.07.2018 04:00:00 23,0 22,1 9 5 W 1015,0 -
16.07.2018 03:00:00 23,2 22,5 11 6 W 1015,1 -
16.07.2018 02:00:00 23,3 22,6 5 3 W 1015,1 0,0
16.07.2018 01:00:00 23,9 23,3 8 4 W 1015,0 -
16.07.2018 00:00:00 24,6 24,0 13 7 NNW 1015,0 -
15.07.2018 23:00:00 24,7 23,8 5 3 WNW 1015,1 -
15.07.2018 22:00:00 25,0 24,3 11 6 WNW 1014,8 -
15.07.2018 21:00:00 25,5 24,2 5 3 NW 1014,1 -
15.07.2018 20:00:00 25,8 24,0 9 5 NW 1014,1 0,0
15.07.2018 19:00:00 26,2 24,6 4 2 ENE 1014,1 -
15.07.2018 18:00:00 26,9 25,3 13 7 WNW 1014,1 -
15.07.2018 17:00:00 27,2 24,8 15 8 NNW 1013,9 -
15.07.2018 16:00:00 26,6 24,8 8 4 N 1014,1 -
15.07.2018 15:00:00 27,2 24,0 11 6 NW 1014,3 -
15.07.2018 14:00:00 28,0 25,4 11 6 NW 1014,4 0,0
15.07.2018 13:00:00 27,1 24,1 13 7 NW 1014,8 -
15.07.2018 12:00:00 27,4 24,2 13 7 NW 1014,6 -
15.07.2018 11:00:00 26,5 25,0 11 6 NNW 1014,6 -
15.07.2018 10:00:00 26,6 25,0 15 8 NW 1014,5 -
15.07.2018 09:00:00 25,7 24,4 16 9 NW 1014,3 -
15.07.2018 08:00:00 24,9 23,8 16 9 WNW 1014,0 0,0
15.07.2018 07:00:00 24,2 23,5 15 8 WNW 1013,8 -
15.07.2018 06:00:00 23,7 23,1 16 9 WNW 1013,6 -
15.07.2018 05:00:00 24,2 23,8 18 10 WNW 1013,3 -
15.07.2018 04:00:00 24,5 23,9 21 11 WNW 1013,6 -
15.07.2018 03:00:00 24,7 23,8 15 8 WNW 1013,7 -
15.07.2018 02:00:00 25,3 17,4 11 6 WNW 1013,8 0,0
15.07.2018 01:00:00 24,8 18,7 11 6 NW 1013,6 -
15.07.2018 00:00:00 25,9 19,0 5 3 SSE 1013,6 -
14.07.2018 23:00:00 25,3 24,0 18 10 S 1013,7 -
14.07.2018 22:00:00 25,6 23,8 16 9 S 1014,1 -
14.07.2018 21:00:00 25,8 22,6 16 9 S 1014,0 -
14.07.2018 20:00:00 26,3 17,9 11 6 SSE 1014,4 0,0
14.07.2018 19:00:00 26,5 22,7 15 8 SSE 1014,3 -
14.07.2018 18:00:00 27,1 23,5 15 8 S 1014,7 -
14.07.2018 17:00:00 28,1 23,8 11 6 SSE 1015,3 -
14.07.2018 16:00:00 27,8 25,6 9 5 SSE 1015,9 -
14.07.2018 15:00:00 27,6 24,2 9 5 SE 1016,5 -
14.07.2018 14:00:00 27,8 22,5 8 4 SE 1016,9 0,0
14.07.2018 13:00:00 27,7 25,3 5 3 ESE 1017,3 -
14.07.2018 12:00:00 27,1 25,3 8 4 SE 1017,4 -
14.07.2018 11:00:00 27,3 25,9 9 5 SE 1017,3 -
14.07.2018 10:00:00 26,2 25,3 4 2 SSE 1017,7 -
14.07.2018 09:00:00 25,8 25,1 5 3 SE 1017,2 -
14.07.2018 08:00:00 24,9 24,3 4 2 NNE 1017,0 0,0
14.07.2018 07:00:00 23,4 22,8 2 1 SSW 1016,7 -
14.07.2018 06:00:00 23,3 22,7 13 7 S 1016,4 -
14.07.2018 05:00:00 23,3 22,6 5 3 S 1016,8 -
14.07.2018 04:00:00 23,2 22,1 2 1 S 1016,8 -
14.07.2018 03:00:00 23,6 22,3 0 0 N 1017,0 -
14.07.2018 02:00:00 23,9 22,5 2 1 S 1017,1 0,0
14.07.2018 01:00:00 24,1 22,5 5 3 S 1017,1 -
14.07.2018 00:00:00 24,1 22,3 4 2 S 1017,3 -
13.07.2018 23:00:00 24,5 21,6 4 2 S 1017,5 -
13.07.2018 22:00:00 24,5 19,5 4 2 S 1017,0 -
13.07.2018 21:00:00 25,3 21,7 8 4 S 1016,6 -
13.07.2018 20:00:00 26,0 20,7 5 3 S 1016,3 0,0
13.07.2018 19:00:00 26,8 21,5 5 3 S 1016,2 -
13.07.2018 18:00:00 27,6 21,8 5 3 SSE 1016,4 -
13.07.2018 17:00:00 27,4 24,2 5 3 SSE 1016,6 -
13.07.2018 16:00:00 27,2 23,8 8 4 SSE 1017,0 -
13.07.2018 15:00:00 28,0 22,9 4 2 ESE 1017,4 -
13.07.2018 14:00:00 28,0 24,2 5 3 ESE 1017,9 0,0
13.07.2018 13:00:00 27,2 23,6 8 4 SE 1018,1 -
13.07.2018 12:00:00 27,4 23,6 11 6 SE 1018,1 -
13.07.2018 11:00:00 27,0 24,0 11 6 SE 1018,0 -
13.07.2018 10:00:00 26,5 25,2 13 7 SSE 1017,7 -
13.07.2018 09:00:00 26,1 24,8 11 6 SSE 1017,5 -
13.07.2018 08:00:00 24,8 23,7 11 6 S 1017,2 0,0
13.07.2018 07:00:00 23,4 22,7 8 4 S 1017,1 -
13.07.2018 06:00:00 22,7 22,3 5 3 S 1016,6 -
13.07.2018 05:00:00 22,9 22,3 9 5 S 1016,4 -
13.07.2018 04:00:00 22,7 21,6 5 3 S 1016,5 -
13.07.2018 03:00:00 22,5 19,2 0 0 N 1016,8 -
13.07.2018 02:00:00 22,8 17,4 5 3 S 1017,0 0,0
13.07.2018 01:00:00 22,9 19,6 8 4 WNW 1017,3 -
13.07.2018 00:00:00 23,1 21,3 0 0 N 1017,4 -
12.07.2018 23:00:00 23,6 22,5 4 2 S 1017,1 -
12.07.2018 22:00:00 23,8 22,4 5 3 S 1017,1 -
12.07.2018 21:00:00 24,4 22,8 8 4 S 1016,5 -
12.07.2018 20:00:00 25,1 21,7 11 6 S 1016,3 0,0
12.07.2018 19:00:00 26,1 21,9 9 5 SSE 1016,0 -
12.07.2018 18:00:00 26,9 21,4 11 6 SSE 1016,2 -
12.07.2018 17:00:00 26,8 20,3 8 4 SE 1016,5 -
12.07.2018 16:00:00 27,5 20,3 5 3 ESE 1016,8 -
12.07.2018 15:00:00 27,8 21,5 4 2 ENE 1017,0 -
12.07.2018 14:00:00 27,1 20,9 11 6 NNW 1017,2 0,0
12.07.2018 13:00:00 27,7 22,4 11 6 NNW 1017,4 -
12.07.2018 12:00:00 27,5 22,4 5 3 N 1017,4 -
12.07.2018 11:00:00 27,2 22,1 8 4 N 1017,3 -
12.07.2018 10:00:00 27,6 24,2 9 5 SSE 1016,6 -
12.07.2018 09:00:00 26,6 25,0 4 2 SE 1016,5 -
12.07.2018 08:00:00 24,3 23,2 8 4 SSE 1015,9 0,0
12.07.2018 07:00:00 22,3 21,2 2 1 N 1015,9 -
12.07.2018 06:00:00 21,1 19,7 2 1 SW 1015,8 -
12.07.2018 05:00:00 21,6 20,0 4 2 S 1015,3 -
12.07.2018 04:00:00 21,9 20,3 5 3 S 1015,4 -
12.07.2018 03:00:00 22,1 20,7 5 3 S 1015,4 -
12.07.2018 02:00:00 22,3 20,7 4 2 S 1015,6 0,0
12.07.2018 01:00:00 22,6 21,2 5 3 S 1015,6 -

tt = temperatura
td = temperatura punktu rosy
ff = prędkość wiatru
dd = kierunek wiatru
ppp = ciśnienie zredukowane do poziomu morza
rr = opady

Otoczenie

MeteoGroup informuje, że na swoich stronach www stosuje pliki cookies (tzw. ciasteczka). Aby dowiedzieć się więcej na ich temat proszę kliknąć tutaj.